createdAt,value
2023-01-17T00:02:20.259Z,5.07
2023-01-17T00:05:25.766Z,3.97
2023-01-17T00:08:33.118Z,3.38
2023-01-17T00:11:20.633Z,4.65
2023-01-17T00:14:09.359Z,4.07
2023-01-17T00:16:56.963Z,3.80
2023-01-17T00:20:01.593Z,5.00
2023-01-17T00:23:06.805Z,4.32
2023-01-17T00:26:06.434Z,3.42
2023-01-17T00:28:52.718Z,3.13
2023-01-17T00:31:40.203Z,4.07
2023-01-17T00:34:26.431Z,3.13
2023-01-17T00:37:12.620Z,2.83
2023-01-17T00:39:58.829Z,4.45
2023-01-17T00:42:47.565Z,3.38
2023-01-17T00:45:52.031Z,4.32
2023-01-17T00:52:02.851Z,3.42
2023-01-17T00:55:07.473Z,3.50
2023-01-17T00:58:12.247Z,3.78
2023-01-17T01:01:17.005Z,2.80
2023-01-17T01:04:22.330Z,2.28
2023-01-17T01:07:28.684Z,2.45
2023-01-17T01:10:34.303Z,2.20
2023-01-17T01:13:42.376Z,1.80
2023-01-17T01:16:48.894Z,1.23
2023-01-17T01:19:54.402Z,1.90
2023-01-17T01:23:02.691Z,1.90
2023-01-17T01:26:08.713Z,1.83
2023-01-17T01:29:19.013Z,2.20
2023-01-17T01:32:26.318Z,2.30
2023-01-17T01:35:17.630Z,1.63
2023-01-17T01:38:07.124Z,2.00
2023-01-17T01:40:57.525Z,1.60
2023-01-17T01:43:47.907Z,1.73
2023-01-17T01:46:39.394Z,1.98
2023-01-17T01:49:30.347Z,1.60
2023-01-17T01:52:20.772Z,2.28
2023-01-17T01:55:14.469Z,1.77
2023-01-17T01:58:06.401Z,2.15
2023-01-17T02:00:55.923Z,2.47
2023-01-17T02:03:44.531Z,3.80
2023-01-17T02:06:36.811Z,3.30
2023-01-17T02:09:26.353Z,4.38
2023-01-17T02:12:15.746Z,3.63
2023-01-17T02:15:05.002Z,4.28
2023-01-17T02:18:00.370Z,4.07
2023-01-17T02:20:59.235Z,4.07
2023-01-17T02:24:17.023Z,3.80
2023-01-17T02:27:08.498Z,3.78
2023-01-17T02:30:25.305Z,4.05
2023-01-17T02:33:27.374Z,4.13
2023-01-17T02:36:22.165Z,3.58
2023-01-17T02:39:15.332Z,2.72
2023-01-17T02:42:07.661Z,4.22
2023-01-17T02:44:55.091Z,3.05
2023-01-17T02:47:43.864Z,3.67
2023-01-17T02:50:33.901Z,2.80
2023-01-17T02:53:32.275Z,2.65
2023-01-17T02:56:32.395Z,2.92
2023-01-17T02:59:34.005Z,2.72
2023-01-17T03:02:29.087Z,2.90
2023-01-17T03:05:23.143Z,3.05
2023-01-17T03:10:58.682Z,2.92
2023-01-17T03:13:45.797Z,2.45
2023-01-17T03:16:34.780Z,3.13
2023-01-17T03:19:22.358Z,3.40
2023-01-17T03:22:11.493Z,3.45
2023-01-17T03:24:59.228Z,3.58
2023-01-17T03:27:46.944Z,4.25
2023-01-17T03:30:34.433Z,3.60
2023-01-17T03:33:22.278Z,3.97
2023-01-17T03:36:09.775Z,4.45
2023-01-17T03:38:58.765Z,3.60
2023-01-17T03:41:46.257Z,3.20
2023-01-17T03:44:34.253Z,3.17
2023-01-17T03:47:21.644Z,2.72
2023-01-17T03:50:10.340Z,4.03
2023-01-17T03:52:57.773Z,3.47
2023-01-17T03:55:48.201Z,3.35
2023-01-17T03:58:35.620Z,3.55
2023-01-17T04:01:23.209Z,3.05
2023-01-17T04:04:10.589Z,2.38
2023-01-17T04:06:58.279Z,2.95
2023-01-17T04:09:45.808Z,3.75
2023-01-17T04:12:34.758Z,3.97
2023-01-17T04:15:22.335Z,3.60
2023-01-17T04:18:12.482Z,4.25
2023-01-17T04:20:59.962Z,4.30
2023-01-17T04:23:48.210Z,4.93
2023-01-17T04:26:35.634Z,4.28
2023-01-17T04:29:24.618Z,3.72
2023-01-17T04:32:12.285Z,3.78
2023-01-17T04:34:59.724Z,4.53
2023-01-17T04:37:47.141Z,3.88
2023-01-17T04:40:34.703Z,4.07
2023-01-17T04:43:22.079Z,4.03
2023-01-17T04:46:11.217Z,3.38
2023-01-17T04:48:59.115Z,3.97
2023-01-17T04:51:46.459Z,4.18
2023-01-17T04:54:34.089Z,4.22
2023-01-17T04:57:21.668Z,5.80
2023-01-17T05:00:10.449Z,5.45
2023-01-17T05:02:59.439Z,5.68
2023-01-17T05:05:46.979Z,6.40
2023-01-17T05:08:34.697Z,6.32
2023-01-17T05:11:22.260Z,6.00
2023-01-17T05:14:11.239Z,6.65
2023-01-17T05:16:58.590Z,5.95
2023-01-17T05:19:47.615Z,4.97
2023-01-17T05:22:35.217Z,5.82
2023-01-17T05:25:23.096Z,3.95
2023-01-17T05:28:10.273Z,5.22
2023-01-17T05:30:57.825Z,4.28
2023-01-17T05:33:45.369Z,4.43
2023-01-17T05:36:34.242Z,4.90
2023-01-17T05:39:21.788Z,5.18
2023-01-17T05:42:09.413Z,4.70
2023-01-17T05:44:56.904Z,6.93
2023-01-17T05:47:44.952Z,5.85
2023-01-17T05:50:34.549Z,6.30
2023-01-17T05:53:23.344Z,6.65
2023-01-17T05:56:10.824Z,7.03
2023-01-17T05:58:58.633Z,7.10
2023-01-17T06:01:46.257Z,6.28
2023-01-17T06:04:34.180Z,7.82
2023-01-17T06:07:21.780Z,7.47
2023-01-17T06:10:12.751Z,8.98
2023-01-17T06:13:04.577Z,7.40
2023-01-17T06:15:51.949Z,7.45
2023-01-17T06:18:39.120Z,7.80
2023-01-17T06:21:26.736Z,8.23
2023-01-17T06:24:14.402Z,8.57
2023-01-17T06:27:03.282Z,8.20
2023-01-17T06:29:50.894Z,7.18
2023-01-17T06:32:38.536Z,8.48
2023-01-17T06:35:26.234Z,9.25
2023-01-17T06:38:13.763Z,9.30
2023-01-17T06:41:04.449Z,8.50
2023-01-17T06:43:53.970Z,9.80
2023-01-17T06:46:41.473Z,7.68
2023-01-17T06:49:29.142Z,8.45
2023-01-17T06:52:16.737Z,8.63
2023-01-17T06:55:03.938Z,7.93
2023-01-17T06:57:51.621Z,9.38
2023-01-17T07:00:41.265Z,8.55
2023-01-17T07:03:28.685Z,7.28
2023-01-17T07:06:16.114Z,7.63
2023-01-17T07:09:04.200Z,8.88
2023-01-17T07:11:51.913Z,7.47
2023-01-17T07:14:39.577Z,9.30
2023-01-17T07:17:28.381Z,9.18
2023-01-17T07:20:15.954Z,7.22
2023-01-17T07:23:03.762Z,8.45
2023-01-17T07:25:54.845Z,8.02
2023-01-17T07:28:42.104Z,8.45
2023-01-17T07:31:29.634Z,7.38
2023-01-17T07:34:19.257Z,8.93
2023-01-17T07:37:06.652Z,8.88
2023-01-17T07:39:54.596Z,8.30
2023-01-17T07:42:42.089Z,9.77
2023-01-17T07:45:29.863Z,10.15
2023-01-17T07:48:18.744Z,9.73
2023-01-17T07:51:07.570Z,9.48
2023-01-17T07:53:54.859Z,9.48
2023-01-17T07:56:45.651Z,9.70
2023-01-17T07:59:34.639Z,9.35
2023-01-17T08:02:24.434Z,8.43
2023-01-17T08:05:11.897Z,8.73
2023-01-17T08:08:00.330Z,9.65
2023-01-17T08:10:47.981Z,8.77
2023-01-17T08:13:35.622Z,8.32
2023-01-17T08:16:23.270Z,7.70
2023-01-17T08:19:11.356Z,9.80
2023-01-17T08:21:59.039Z,9.35
2023-01-17T08:24:48.665Z,10.38
2023-01-17T08:27:36.485Z,10.30
2023-01-17T08:30:23.757Z,9.68
2023-01-17T08:33:11.263Z,10.30
2023-01-17T08:35:58.530Z,9.55
2023-01-17T08:38:46.306Z,9.95
2023-01-17T08:41:35.996Z,8.80
2023-01-17T08:44:23.517Z,9.02
2023-01-17T08:47:11.058Z,9.65
2023-01-17T08:50:00.187Z,9.48
2023-01-17T08:52:47.705Z,8.35
2023-01-17T08:55:39.493Z,8.90
2023-01-17T08:58:30.989Z,8.52
2023-01-17T09:01:18.875Z,8.00
2023-01-17T09:04:06.703Z,7.75
2023-01-17T09:06:54.764Z,6.72
2023-01-17T09:09:42.097Z,6.03
2023-01-17T09:12:33.191Z,6.97
2023-01-17T09:15:22.192Z,6.97
2023-01-17T09:18:09.927Z,7.35
2023-01-17T09:20:59.400Z,8.02
2023-01-17T09:23:47.507Z,5.93
2023-01-17T09:26:34.937Z,6.40
2023-01-17T09:29:22.458Z,7.40
2023-01-17T09:32:11.457Z,7.13
2023-01-17T09:35:00.799Z,6.50
2023-01-17T09:37:50.644Z,6.85
2023-01-17T09:40:39.365Z,6.28
2023-01-17T09:43:34.066Z,6.13
2023-01-17T09:46:25.342Z,6.85
2023-01-17T09:49:25.147Z,6.75
2023-01-17T09:52:15.759Z,6.43
2023-01-17T09:55:03.911Z,5.60
2023-01-17T09:58:00.193Z,5.40
2023-01-17T10:00:57.252Z,6.22
2023-01-17T10:03:59.151Z,7.43
2023-01-17T10:07:00.546Z,6.07
2023-01-17T10:10:09.343Z,6.43
2023-01-17T10:13:02.636Z,6.97
2023-01-17T10:16:02.750Z,7.15
2023-01-17T10:19:11.410Z,8.05
2023-01-17T10:22:10.718Z,9.05
2023-01-17T10:25:33.250Z,9.32
2023-01-17T10:28:26.391Z,8.10
2023-01-17T10:31:19.494Z,8.82
2023-01-17T10:34:14.212Z,8.32
2023-01-17T10:37:07.237Z,8.55
2023-01-17T10:39:56.927Z,7.53
2023-01-17T10:42:50.914Z,7.78
2023-01-17T10:48:37.745Z,8.07
2023-01-17T10:54:54.598Z,6.78
2023-01-17T10:57:44.061Z,7.40
2023-01-17T11:00:44.103Z,6.93
2023-01-17T11:03:32.195Z,6.47
2023-01-17T11:06:22.600Z,6.78
2023-01-17T11:09:11.898Z,7.72
2023-01-17T11:12:01.020Z,6.15
2023-01-17T11:15:03.709Z,6.88
2023-01-17T11:17:53.085Z,7.25
2023-01-17T11:20:41.169Z,6.90
2023-01-17T11:23:32.616Z,6.78
2023-01-17T11:26:26.548Z,7.40
2023-01-17T11:29:35.820Z,5.53
2023-01-17T11:32:32.068Z,6.80
2023-01-17T11:35:21.339Z,6.82
2023-01-17T11:38:17.251Z,6.40
2023-01-17T11:41:20.339Z,5.70
2023-01-17T11:44:24.628Z,5.55
2023-01-17T11:47:19.325Z,5.65
2023-01-17T11:50:24.731Z,5.63
2023-01-17T11:53:21.293Z,5.25
2023-01-17T11:56:11.198Z,4.70
2023-01-17T11:59:17.643Z,4.35
2023-01-17T12:02:35.763Z,3.75
2023-01-17T12:05:33.858Z,2.72
2023-01-17T12:08:25.995Z,2.72
2023-01-17T12:11:16.722Z,3.08
2023-01-17T12:14:09.665Z,2.60
2023-01-17T12:17:01.600Z,2.78
2023-01-17T12:20:00.946Z,2.97
2023-01-17T12:23:10.765Z,3.17
2023-01-17T12:26:04.949Z,3.10
2023-01-17T12:29:11.876Z,3.05
2023-01-17T12:32:12.911Z,2.90
2023-01-17T12:35:05.687Z,3.08
2023-01-17T12:38:04.716Z,3.17
2023-01-17T12:40:55.210Z,3.20
2023-01-17T12:43:42.402Z,3.60
2023-01-17T12:46:34.697Z,3.25
2023-01-17T12:49:27.052Z,3.40
2023-01-17T12:52:27.527Z,3.92
2023-01-17T12:55:20.207Z,3.92
2023-01-17T12:58:13.686Z,4.65
2023-01-17T13:01:05.851Z,4.03
2023-01-17T13:04:04.795Z,3.72
2023-01-17T13:07:02.103Z,4.15
2023-01-17T13:09:54.956Z,3.45
2023-01-17T13:12:43.174Z,3.45
2023-01-17T13:15:37.581Z,4.05
2023-01-17T13:18:27.027Z,4.25
2023-01-17T13:21:31.707Z,5.00
2023-01-17T13:24:23.878Z,4.18
2023-01-17T13:27:28.009Z,4.10
2023-01-17T13:30:32.063Z,4.40
2023-01-17T13:33:29.750Z,3.95
2023-01-17T13:36:30.018Z,4.13
2023-01-17T13:39:36.503Z,4.30
2023-01-17T13:42:36.207Z,4.00
2023-01-17T13:45:27.154Z,3.85
2023-01-17T13:48:30.084Z,3.17
2023-01-17T13:51:19.750Z,3.33
2023-01-17T13:54:08.448Z,3.70
2023-01-17T13:57:36.224Z,3.60
2023-01-17T14:00:49.211Z,3.90
2023-01-17T14:04:05.060Z,3.97
2023-01-17T14:06:55.532Z,4.60
2023-01-17T14:09:43.600Z,3.60
2023-01-17T14:12:34.151Z,5.13
2023-01-17T14:15:23.571Z,3.88
2023-01-17T14:18:33.972Z,3.67
2023-01-17T14:21:23.863Z,3.88
2023-01-17T14:24:17.934Z,3.85
2023-01-17T14:27:17.478Z,3.42
2023-01-17T14:30:18.011Z,3.10
2023-01-17T14:33:15.891Z,3.15
2023-01-17T14:36:06.365Z,3.70
2023-01-17T14:38:53.736Z,3.22
2023-01-17T14:41:43.298Z,3.70
2023-01-17T14:44:32.834Z,3.40
2023-01-17T14:47:22.916Z,3.70
2023-01-17T14:50:21.677Z,4.63
2023-01-17T14:53:20.183Z,3.35
2023-01-17T14:56:16.923Z,4.43
2023-01-17T14:59:17.040Z,4.07
2023-01-17T15:02:08.523Z,3.88
2023-01-17T15:04:57.559Z,4.55
2023-01-17T15:07:47.127Z,4.38
2023-01-17T15:10:34.797Z,3.25
2023-01-17T15:13:35.580Z,4.50
2023-01-17T15:16:33.789Z,4.40
2023-01-17T15:19:22.869Z,4.90
2023-01-17T15:22:11.653Z,5.00
2023-01-17T15:24:59.396Z,5.45
2023-01-17T15:27:47.099Z,5.20
2023-01-17T15:30:34.764Z,4.32
2023-01-17T15:33:22.217Z,4.88
2023-01-17T15:36:22.847Z,5.25
2023-01-17T15:39:20.199Z,6.22
2023-01-17T15:42:09.586Z,5.53
2023-01-17T15:45:00.887Z,6.35
2023-01-17T15:47:49.162Z,7.13
2023-01-17T15:50:39.736Z,6.18
2023-01-17T15:53:33.268Z,6.15
2023-01-17T15:56:31.838Z,6.85
2023-01-17T15:59:31.954Z,6.38
2023-01-17T16:02:35.425Z,7.32
2023-01-17T16:05:42.319Z,7.28
2023-01-17T16:08:33.345Z,6.60
2023-01-17T16:11:21.810Z,6.53
2023-01-17T16:14:10.412Z,6.25
2023-01-17T16:16:59.836Z,6.70
2023-01-17T16:19:47.265Z,6.15
2023-01-17T16:22:34.825Z,6.40
2023-01-17T16:25:23.696Z,6.45
2023-01-17T16:28:11.283Z,6.95
2023-01-17T16:30:59.998Z,6.85
2023-01-17T16:33:50.876Z,6.28
2023-01-17T16:36:38.590Z,7.53
2023-01-17T16:39:26.193Z,6.35
2023-01-17T16:42:14.080Z,7.40
2023-01-17T16:45:01.416Z,7.07
2023-01-17T16:47:51.263Z,6.20
2023-01-17T16:50:42.272Z,6.75
2023-01-17T16:53:29.564Z,6.47
2023-01-17T16:56:20.176Z,6.60
2023-01-17T16:59:07.757Z,5.82
2023-01-17T17:01:55.686Z,8.25
2023-01-17T17:04:44.621Z,6.00
2023-01-17T17:07:32.093Z,5.68
2023-01-17T17:10:21.960Z,5.75
2023-01-17T17:13:09.284Z,5.43
2023-01-17T17:15:56.815Z,5.20
2023-01-17T17:18:45.607Z,4.75
2023-01-17T17:21:37.452Z,5.63
2023-01-17T17:24:25.071Z,7.00
2023-01-17T17:27:12.994Z,5.75
2023-01-17T17:30:00.365Z,5.70
2023-01-17T17:32:48.241Z,6.65
2023-01-17T17:35:35.857Z,5.93
2023-01-17T17:38:25.923Z,6.25
2023-01-17T17:41:13.321Z,6.82
2023-01-17T17:44:02.076Z,6.95
2023-01-17T17:46:51.432Z,8.85
2023-01-17T17:49:39.259Z,8.35
2023-01-17T17:52:28.043Z,8.57
2023-01-17T17:55:19.081Z,8.10
2023-01-17T17:58:06.433Z,7.55
2023-01-17T18:00:53.941Z,7.75
2023-01-17T18:03:41.478Z,8.38
2023-01-17T18:06:28.932Z,8.48
2023-01-17T18:09:16.470Z,9.88
2023-01-17T18:12:05.834Z,9.93
2023-01-17T18:14:53.290Z,9.73
2023-01-17T18:17:40.988Z,8.43
2023-01-17T18:20:28.375Z,7.88
2023-01-17T18:23:15.630Z,8.38
2023-01-17T18:26:02.536Z,7.35
2023-01-17T18:28:52.332Z,6.63
2023-01-17T18:31:39.920Z,7.18
2023-01-17T18:34:29.317Z,7.05
2023-01-17T18:37:17.136Z,6.70
2023-01-17T18:40:05.342Z,6.15
2023-01-17T18:42:52.862Z,5.10
2023-01-17T18:45:42.039Z,5.68
2023-01-17T18:48:29.734Z,8.07
2023-01-17T18:51:19.574Z,9.05
2023-01-17T18:54:08.911Z,10.30
2023-01-17T18:56:56.695Z,10.85
2023-01-17T18:59:44.654Z,11.35
2023-01-17T19:02:33.719Z,14.02
2023-01-17T19:05:21.650Z,14.40
2023-01-17T19:08:09.631Z,14.65
2023-01-17T19:10:57.074Z,15.38
2023-01-17T19:13:44.502Z,16.52
2023-01-17T19:16:35.055Z,14.27
2023-01-17T19:19:24.277Z,12.40
2023-01-17T19:22:11.600Z,11.45
2023-01-17T19:24:59.192Z,8.52
2023-01-17T19:27:47.058Z,7.72
2023-01-17T19:30:34.620Z,7.25
2023-01-17T19:33:21.911Z,9.05
2023-01-17T19:36:13.682Z,7.57
2023-01-17T19:39:05.894Z,8.27
2023-01-17T19:41:54.033Z,10.48
2023-01-17T19:44:41.639Z,14.93
2023-01-17T19:47:29.258Z,14.40
2023-01-17T19:50:18.736Z,11.57
2023-01-17T19:53:07.466Z,8.35
2023-01-17T19:55:54.953Z,8.60
2023-01-17T19:58:43.522Z,7.10
2023-01-17T20:01:32.560Z,7.20
2023-01-17T20:04:20.545Z,6.38
2023-01-17T20:07:07.729Z,6.50
2023-01-17T20:09:55.980Z,6.43
2023-01-17T20:12:42.899Z,5.82
2023-01-17T20:15:31.625Z,6.57
2023-01-17T20:18:20.152Z,7.13
2023-01-17T20:21:09.739Z,6.43
2023-01-17T20:23:58.079Z,7.22
2023-01-17T20:26:46.878Z,7.28
2023-01-17T20:29:34.857Z,7.63
2023-01-17T20:32:22.508Z,7.68
2023-01-17T20:35:10.786Z,7.47
2023-01-17T20:37:58.646Z,8.07
2023-01-17T20:40:54.370Z,7.10
2023-01-17T20:43:43.889Z,6.35
2023-01-17T20:46:35.314Z,6.18
2023-01-17T20:49:22.820Z,5.63
2023-01-17T20:52:10.922Z,5.68
2023-01-17T20:54:58.581Z,5.88
2023-01-17T20:57:46.085Z,5.13
2023-01-17T21:00:37.944Z,6.55
2023-01-17T21:03:28.789Z,6.28
2023-01-17T21:06:16.228Z,5.55
2023-01-17T21:09:05.565Z,7.47
2023-01-17T21:11:54.374Z,7.47
2023-01-17T21:14:43.043Z,7.25
2023-01-17T21:17:33.244Z,8.25
2023-01-17T21:20:21.634Z,8.77
2023-01-17T21:23:09.609Z,7.70
2023-01-17T21:25:58.017Z,7.35
2023-01-17T21:28:47.221Z,6.72
2023-01-17T21:31:36.731Z,6.40
2023-01-17T21:34:25.703Z,5.95
2023-01-17T21:37:13.289Z,5.25
2023-01-17T21:40:00.956Z,5.78
2023-01-17T21:42:48.331Z,5.45
2023-01-17T21:45:37.630Z,5.90
2023-01-17T21:48:24.870Z,5.07
2023-01-17T21:51:14.008Z,5.78
2023-01-17T21:54:01.302Z,6.30
2023-01-17T21:57:06.223Z,6.60
2023-01-17T21:59:53.560Z,5.75
2023-01-17T22:02:41.450Z,5.65
2023-01-17T22:05:28.414Z,6.20
2023-01-17T22:08:17.362Z,6.07
2023-01-17T22:11:07.184Z,6.43
2023-01-17T22:13:54.329Z,6.32
2023-01-17T22:16:41.943Z,7.15
2023-01-17T22:19:29.441Z,6.30
2023-01-17T22:22:16.921Z,7.03
2023-01-17T22:25:06.555Z,7.55
2023-01-17T22:27:53.844Z,7.40
2023-01-17T22:30:41.379Z,7.63
2023-01-17T22:33:28.534Z,9.38
2023-01-17T22:36:16.048Z,8.80
2023-01-17T22:39:03.286Z,7.88
2023-01-17T22:41:51.818Z,7.43
2023-01-17T22:44:39.431Z,7.75
2023-01-17T22:47:27.162Z,6.97
2023-01-17T22:50:14.670Z,8.23
2023-01-17T22:53:02.802Z,8.57
2023-01-17T22:55:59.770Z,7.82
2023-01-17T22:58:49.298Z,8.73
2023-01-17T23:01:36.679Z,7.85
2023-01-17T23:04:24.414Z,9.10
2023-01-17T23:07:11.927Z,7.95
2023-01-17T23:09:59.463Z,7.22
2023-01-17T23:12:47.343Z,7.47
2023-01-17T23:15:56.408Z,7.35
2023-01-17T23:19:01.241Z,7.25
2023-01-17T23:22:05.867Z,8.15
2023-01-17T23:28:00.459Z,8.95
2023-01-17T23:30:50.285Z,8.68
2023-01-17T23:33:37.894Z,9.13
2023-01-17T23:36:25.605Z,10.07
2023-01-17T23:39:13.077Z,9.80
2023-01-17T23:42:18.182Z,9.20
2023-01-17T23:45:06.311Z,11.02
2023-01-17T23:47:55.033Z,10.00
2023-01-17T23:50:44.208Z,10.65
2023-01-17T23:53:31.484Z,11.35
2023-01-17T23:56:21.322Z,10.10
2023-01-17T23:59:09.068Z,10.00
